sensor_id;sensor_type;location;lat;lon;timestamp;pressure;altitude;pressure_sealevel;temperature;humidity
50696;BME280;36665;51.786;21.594;2023-10-09T00:08:07;90026.89;;;0.53;68.86
50696;BME280;36665;51.786;21.594;2023-10-09T00:16:33;90009.64;;;0.48;68.84
50696;BME280;36665;51.786;21.594;2023-10-09T00:25:02;89995.99;;;0.44;68.68
50696;BME280;36665;51.786;21.594;2023-10-09T00:33:36;89970.73;;;0.38;68.70
50696;BME280;36665;51.786;21.594;2023-10-09T00:42:06;89925.29;;;0.26;68.72
50696;BME280;36665;51.786;21.594;2023-10-09T00:50:32;89874.52;;;0.12;68.73
50696;BME280;36665;51.786;21.594;2023-10-09T00:59:01;89856.83;;;0.07;68.72
50696;BME280;36665;51.786;21.594;2023-10-09T01:07:45;89857.63;;;0.08;68.76
50696;BME280;36665;51.786;21.594;2023-10-09T01:16:17;89852.08;;;0.06;68.53
50696;BME280;36665;51.786;21.594;2023-10-09T01:24:42;89841.60;;;0.03;68.61
50696;BME280;36665;51.786;21.594;2023-10-09T01:33:14;89835.42;;;0.02;68.64
50696;BME280;36665;51.786;21.594;2023-10-09T01:41:56;89831.61;;;0.01;68.50
50696;BME280;36665;51.786;21.594;2023-10-09T01:50:26;89830.06;;;0.01;68.36
50696;BME280;36665;51.786;21.594;2023-10-09T01:59:05;89823.42;;;-0.01;68.35
50696;BME280;36665;51.786;21.594;2023-10-09T02:07:35;89808.37;;;-0.05;68.37
50696;BME280;36665;51.786;21.594;2023-10-09T02:16:13;89810.94;;;-0.04;68.43
50696;BME280;36665;51.786;21.594;2023-10-09T02:24:55;89826.39;;;0.01;68.44
50696;BME280;36665;51.786;21.594;2023-10-09T02:33:22;89837.05;;;0.03;68.60
50696;BME280;36665;51.786;21.594;2023-10-09T02:41:53;89833.20;;;0.03;68.55
50696;BME280;36665;51.786;21.594;2023-10-09T02:50:24;89810.98;;;-0.03;68.65
50696;BME280;36665;51.786;21.594;2023-10-09T02:59:04;89817.50;;;-0.01;68.52
50696;BME280;36665;51.786;21.594;2023-10-09T03:07:34;89848.50;;;0.08;68.47
50696;BME280;36665;51.786;21.594;2023-10-09T03:15:59;89876.95;;;0.16;68.52
50696;BME280;36665;51.786;21.594;2023-10-09T03:24:27;89887.39;;;0.19;68.55
50696;BME280;36665;51.786;21.594;2023-10-09T03:32:56;89907.13;;;0.25;68.52
50696;BME280;36665;51.786;21.594;2023-10-09T03:41:25;89951.39;;;0.36;68.54
50696;BME280;36665;51.786;21.594;2023-10-09T03:49:53;90000.17;;;0.50;68.63
50696;BME280;36665;51.786;21.594;2023-10-09T03:58:20;90050.92;;;0.65;68.51
50696;BME280;36665;51.786;21.594;2023-10-09T04:06:46;90071.52;;;0.71;68.60
50696;BME280;36665;51.786;21.594;2023-10-09T04:15:11;90067.09;;;0.70;68.51
50696;BME280;36665;51.786;21.594;2023-10-09T04:23:40;90081.36;;;0.74;68.53
50696;BME280;36665;51.786;21.594;2023-10-09T04:32:24;90110.55;;;0.82;68.59
50696;BME280;36665;51.786;21.594;2023-10-09T04:40:50;90138.46;;;0.91;68.66
50696;BME280;36665;51.786;21.594;2023-10-09T04:49:15;90161.91;;;0.98;68.69
50696;BME280;36665;51.786;21.594;2023-10-09T04:57:53;90155.21;;;0.96;68.69
50696;BME280;36665;51.786;21.594;2023-10-09T05:06:33;90170.21;;;0.99;68.75
50696;BME280;36665;51.786;21.594;2023-10-09T05:15:08;90203.29;;;1.09;68.61
50696;BME280;36665;51.786;21.594;2023-10-09T05:23:33;90239.59;;;1.19;68.53
50696;BME280;36665;51.786;21.594;2023-10-09T05:32:08;90252.42;;;1.22;68.73
50696;BME280;36665;51.786;21.594;2023-10-09T05:40:39;90272.34;;;1.27;68.92
50696;BME280;36665;51.786;21.594;2023-10-09T05:49:11;90317.08;;;1.41;68.85
50696;BME280;36665;51.786;21.594;2023-10-09T05:57:45;90382.61;;;1.58;68.87
50696;BME280;36665;51.786;21.594;2023-10-09T06:06:29;90433.09;;;1.72;68.86
50696;BME280;36665;51.786;21.594;2023-10-09T06:15:20;90470.66;;;1.83;68.99
50696;BME280;36665;51.786;21.594;2023-10-09T06:24:15;90542.14;;;2.04;68.96
50696;BME280;36665;51.786;21.594;2023-10-09T06:32:41;90617.03;;;2.24;68.92
50696;BME280;36665;51.786;21.594;2023-10-09T06:41:26;90658.73;;;2.37;69.09
50696;BME280;36665;51.786;21.594;2023-10-09T06:50:05;90710.39;;;2.52;69.21
50696;BME280;36665;51.786;21.594;2023-10-09T06:59:06;90783.42;;;2.71;69.07
50696;BME280;36665;51.786;21.594;2023-10-09T07:07:47;90855.14;;;2.90;69.25
50696;BME280;36665;51.786;21.594;2023-10-09T07:16:24;90916.02;;;3.07;69.39
50696;BME280;36665;51.786;21.594;2023-10-09T07:34:38;91059.72;;;3.46;69.46
50696;BME280;36665;51.786;21.594;2023-10-09T08:01:51;91458.75;;;4.55;69.68
50696;BME280;36665;51.786;21.594;2023-10-09T08:10:30;91652.70;;;5.08;69.75
50696;BME280;36665;51.786;21.594;2023-10-09T08:18:58;91805.23;;;5.50;69.83
50696;BME280;36665;51.786;21.594;2023-10-09T08:27:29;91941.90;;;5.86;69.98
50696;BME280;36665;51.786;21.594;2023-10-09T08:36:35;92076.42;;;6.23;70.13
50696;BME280;36665;51.786;21.594;2023-10-09T08:45:31;92235.52;;;6.65;70.08
50696;BME280;36665;51.786;21.594;2023-10-09T08:53:57;92402.50;;;7.10;70.29
50696;BME280;36665;51.786;21.594;2023-10-09T09:02:27;92522.78;;;7.42;70.43
50696;BME280;36665;51.786;21.594;2023-10-09T09:11:10;92631.85;;;7.70;70.54
50696;BME280;36665;51.786;21.594;2023-10-09T09:47:13;93046.27;;;8.81;70.63
50696;BME280;36665;51.786;21.594;2023-10-09T09:55:42;93143.20;;;9.04;70.75
50696;BME280;36665;51.786;21.594;2023-10-09T10:04:17;93212.69;;;9.22;70.77
50696;BME280;36665;51.786;21.594;2023-10-09T10:12:54;93239.41;;;9.28;70.99
50696;BME280;36665;51.786;21.594;2023-10-09T10:21:29;93236.64;;;9.27;70.90
50696;BME280;36665;51.786;21.594;2023-10-09T10:30:30;93200.60;;;9.18;70.98
50696;BME280;36665;51.786;21.594;2023-10-09T10:39:14;93159.06;;;9.07;70.86
50696;BME280;36665;51.786;21.594;2023-10-09T10:48:06;93107.69;;;8.93;70.84
50696;BME280;36665;51.786;21.594;2023-10-09T10:56:37;93073.46;;;8.84;70.84
50696;BME280;36665;51.786;21.594;2023-10-09T11:05:02;93045.04;;;8.77;70.62
50696;BME280;36665;51.786;21.594;2023-10-09T11:13:45;93025.47;;;8.71;70.53
50696;BME280;36665;51.786;21.594;2023-10-09T11:22:23;93024.27;;;8.70;70.44
50696;BME280;36665;51.786;21.594;2023-10-09T11:30:53;93055.20;;;8.78;70.65
50696;BME280;36665;51.786;21.594;2023-10-09T11:39:25;93044.70;;;8.76;70.67
50696;BME280;36665;51.786;21.594;2023-10-09T11:47:58;93033.80;;;8.72;70.49
50696;BME280;36665;51.786;21.594;2023-10-09T11:56:28;93006.41;;;8.65;70.65
50696;BME280;36665;51.786;21.594;2023-10-09T12:04:59;92958.85;;;8.53;70.68
50696;BME280;36665;51.786;21.594;2023-10-09T12:13:22;92918.35;;;8.41;70.58
50696;BME280;36665;51.786;21.594;2023-10-09T12:21:46;92902.52;;;8.37;70.51
50696;BME280;36665;51.786;21.594;2023-10-09T12:30:13;92878.00;;;8.32;70.68
50696;BME280;36665;51.786;21.594;2023-10-09T12:38:40;92897.08;;;8.36;70.61
50696;BME280;36665;51.786;21.594;2023-10-09T12:47:09;92886.34;;;8.34;70.47
50696;BME280;36665;51.786;21.594;2023-10-09T12:55:40;92883.76;;;8.32;70.38
50696;BME280;36665;51.786;21.594;2023-10-09T13:04:04;92866.89;;;8.28;70.49
50696;BME280;36665;51.786;21.594;2023-10-09T13:12:34;92818.68;;;8.16;70.50
50696;BME280;36665;51.786;21.594;2023-10-09T13:21:04;92760.86;;;8.00;70.31
50696;BME280;36665;51.786;21.594;2023-10-09T13:29:28;92732.80;;;7.93;70.28
50696;BME280;36665;51.786;21.594;2023-10-09T13:37:53;92706.82;;;7.86;70.38
50696;BME280;36665;51.786;21.594;2023-10-09T13:46:16;92662.33;;;7.74;70.39
50696;BME280;36665;51.786;21.594;2023-10-09T13:54:49;92644.48;;;7.69;70.20
50696;BME280;36665;51.786;21.594;2023-10-09T14:03:17;92634.44;;;7.67;70.43
50696;BME280;36665;51.786;21.594;2023-10-09T14:11:42;92653.12;;;7.71;70.25
50696;BME280;36665;51.786;21.594;2023-10-09T14:20:12;92649.98;;;7.71;70.18
50696;BME280;36665;51.786;21.594;2023-10-09T14:28:55;92626.70;;;7.64;70.27
50696;BME280;36665;51.786;21.594;2023-10-09T14:37:19;92618.63;;;7.62;70.34
50696;BME280;36665;51.786;21.594;2023-10-09T14:45:48;92604.20;;;7.59;70.29
50696;BME280;36665;51.786;21.594;2023-10-09T14:54:13;92603.84;;;7.59;70.31
50696;BME280;36665;51.786;21.594;2023-10-09T15:02:41;92615.08;;;7.61;70.19
50696;BME280;36665;51.786;21.594;2023-10-09T15:11:07;92611.36;;;7.61;70.30
50696;BME280;36665;51.786;21.594;2023-10-09T15:19:31;92583.69;;;7.53;70.31
50696;BME280;36665;51.786;21.594;2023-10-09T15:27:54;92545.35;;;7.43;70.23
50696;BME280;36665;51.786;21.594;2023-10-09T15:36:17;92536.77;;;7.41;70.33
50696;BME280;36665;51.786;21.594;2023-10-09T15:44:40;92522.23;;;7.37;69.92
50696;BME280;36665;51.786;21.594;2023-10-09T15:53:04;92486.15;;;7.27;69.92
50696;BME280;36665;51.786;21.594;2023-10-09T16:21:06;92284.21;;;6.75;69.94
50696;BME280;36665;51.786;21.594;2023-10-09T16:29:31;92199.85;;;6.51;69.82
50696;BME280;36665;51.786;21.594;2023-10-09T16:37:57;92083.09;;;6.20;70.02
50696;BME280;36665;51.786;21.594;2023-10-09T16:46:23;91993.07;;;5.96;69.75
50696;BME280;36665;51.786;21.594;2023-10-09T16:54:52;91915.73;;;5.74;69.72
50696;BME280;36665;51.786;21.594;2023-10-09T17:48:41;91469.71;;;4.53;69.31
50696;BME280;36665;51.786;21.594;2023-10-09T17:58:04;91375.80;;;4.29;69.37
50696;BME280;36665;51.786;21.594;2023-10-09T18:06:35;91283.66;;;4.04;69.23
50696;BME280;36665;51.786;21.594;2023-10-09T18:15:07;91211.48;;;3.83;69.32
50696;BME280;36665;51.786;21.594;2023-10-09T18:23:41;91130.39;;;3.62;69.06
50696;BME280;36665;51.786;21.594;2023-10-09T18:32:29;91068.74;;;3.45;69.18
50696;BME280;36665;51.786;21.594;2023-10-09T18:41:08;91028.48;;;3.34;69.26
50696;BME280;36665;51.786;21.594;2023-10-09T18:49:42;90957.01;;;3.15;68.79
50696;BME280;36665;51.786;21.594;2023-10-09T18:58:07;90884.20;;;2.96;68.82
50696;BME280;36665;51.786;21.594;2023-10-09T19:26:12;90875.86;;;2.94;69.04
50696;BME280;36665;51.786;21.594;2023-10-09T19:34:41;90851.27;;;2.88;68.90
50696;BME280;36665;51.786;21.594;2023-10-09T19:43:07;90836.79;;;2.83;68.79
50696;BME280;36665;51.786;21.594;2023-10-09T20:14:13;90810.29;;;2.78;68.80
50696;BME280;36665;51.786;21.594;2023-10-09T20:24:17;90736.73;;;2.57;68.71
50696;BME280;36665;51.786;21.594;2023-10-09T20:52:25;90711.02;;;2.49;68.78
50696;BME280;36665;51.786;21.594;2023-10-09T21:54:21;90877.15;;;2.96;68.87
50696;BME280;36665;51.786;21.594;2023-10-09T22:03:04;90882.02;;;2.98;68.93
50696;BME280;36665;51.786;21.594;2023-10-09T22:11:37;90894.23;;;3.00;69.10
50696;BME280;36665;51.786;21.594;2023-10-09T22:20:06;90908.27;;;3.04;68.90
